createdAt,value
2023-01-25T00:01:18.748Z,18.57
2023-01-25T00:03:46.765Z,20.43
2023-01-25T00:06:16.045Z,17.93
2023-01-25T00:08:43.889Z,15.70
2023-01-25T00:11:11.840Z,17.80
2023-01-25T00:13:39.779Z,18.90
2023-01-25T00:16:08.890Z,18.40
2023-01-25T00:18:36.836Z,18.63
2023-01-25T00:21:13.339Z,17.60
2023-01-25T00:23:42.614Z,20.23
2023-01-25T00:26:10.532Z,19.73
2023-01-25T00:28:39.184Z,18.37
2023-01-25T00:31:08.604Z,18.70
2023-01-25T00:33:44.935Z,19.17
2023-01-25T00:36:41.758Z,21.10
2023-01-25T00:39:14.582Z,19.50
2023-01-25T00:41:44.513Z,21.73
2023-01-25T00:44:12.384Z,20.10
2023-01-25T00:46:40.488Z,18.33
2023-01-25T00:49:08.697Z,18.67
2023-01-25T00:51:36.552Z,22.10
2023-01-25T00:54:04.690Z,19.60
2023-01-25T00:56:34.389Z,16.03
2023-01-25T00:59:02.275Z,15.83
2023-01-25T01:01:30.149Z,18.73
2023-01-25T01:03:58.064Z,19.60
2023-01-25T01:06:25.935Z,20.00
2023-01-25T01:08:54.083Z,15.33
2023-01-25T01:11:24.414Z,17.10
2023-01-25T01:13:53.945Z,17.60
2023-01-25T01:16:21.824Z,16.30
2023-01-25T01:18:50.900Z,18.20
2023-01-25T01:21:19.722Z,15.40
2023-01-25T01:23:47.719Z,19.60
2023-01-25T01:26:19.454Z,14.80
2023-01-25T01:28:47.852Z,18.67
2023-01-25T01:31:19.047Z,17.97
2023-01-25T01:33:59.371Z,19.67
2023-01-25T01:36:29.665Z,15.47
2023-01-25T01:38:59.014Z,17.73
2023-01-25T01:41:26.997Z,17.80
2023-01-25T01:43:55.307Z,19.23
2023-01-25T01:46:28.677Z,14.87
2023-01-25T01:49:02.592Z,16.73
2023-01-25T01:51:42.181Z,16.50
2023-01-25T01:54:18.583Z,22.23
2023-01-25T01:56:53.195Z,17.10
2023-01-25T01:59:23.218Z,18.20
2023-01-25T02:01:52.679Z,26.17
2023-01-25T02:04:23.461Z,25.47
2023-01-25T02:06:55.625Z,24.60
2023-01-25T02:09:26.061Z,24.53
2023-01-25T02:11:54.939Z,18.83
2023-01-25T02:14:24.342Z,20.47
2023-01-25T02:16:53.691Z,22.20
2023-01-25T02:19:34.532Z,17.57
2023-01-25T02:22:07.742Z,21.20
2023-01-25T02:24:36.325Z,17.97
2023-01-25T02:27:06.449Z,21.53
2023-01-25T02:29:35.690Z,19.33
2023-01-25T02:32:05.261Z,22.97
2023-01-25T02:34:33.284Z,19.23
2023-01-25T02:37:01.393Z,17.30
2023-01-25T02:39:30.428Z,19.40
2023-01-25T02:41:58.249Z,19.67
2023-01-25T02:44:33.537Z,19.20
2023-01-25T02:47:04.581Z,15.27
2023-01-25T02:49:35.508Z,18.37
2023-01-25T02:52:04.718Z,15.07
2023-01-25T02:54:33.075Z,16.60
2023-01-25T02:57:02.487Z,15.20
2023-01-25T02:59:39.432Z,15.87
2023-01-25T03:02:08.179Z,16.30
2023-01-25T03:04:36.575Z,16.53
2023-01-25T03:07:04.541Z,13.30
2023-01-25T03:09:32.593Z,22.27
2023-01-25T03:12:00.553Z,12.83
2023-01-25T03:14:28.557Z,19.50
2023-01-25T03:16:57.757Z,14.30
2023-01-25T03:19:26.825Z,15.23
2023-01-25T03:21:54.797Z,14.97
2023-01-25T03:24:24.569Z,12.53
2023-01-25T03:27:10.205Z,14.47
2023-01-25T03:29:58.518Z,15.40
2023-01-25T03:32:32.661Z,13.93
2023-01-25T03:35:07.186Z,14.63
2023-01-25T03:37:35.369Z,13.97
2023-01-25T03:40:05.659Z,14.10
2023-01-25T03:42:34.204Z,16.57
2023-01-25T03:45:02.228Z,14.40
2023-01-25T03:47:32.476Z,13.87
2023-01-25T03:50:00.471Z,15.60
2023-01-25T03:52:45.588Z,15.10
2023-01-25T03:55:13.622Z,13.50
2023-01-25T03:57:43.560Z,16.10
2023-01-25T04:00:13.007Z,17.07
2023-01-25T04:02:50.190Z,17.03
2023-01-25T04:05:20.212Z,14.53
2023-01-25T04:07:48.619Z,21.37
2023-01-25T04:10:21.221Z,16.20
2023-01-25T04:12:50.030Z,15.73
2023-01-25T04:15:18.033Z,17.53
2023-01-25T04:17:46.219Z,16.37
2023-01-25T04:20:25.294Z,17.70
2023-01-25T04:22:55.373Z,16.43
2023-01-25T04:25:28.114Z,17.60
2023-01-25T04:27:56.058Z,16.47
2023-01-25T04:30:25.652Z,18.23
2023-01-25T04:32:55.282Z,12.53
2023-01-25T04:35:31.929Z,11.43
2023-01-25T04:38:02.114Z,18.37
2023-01-25T04:40:37.126Z,14.27
2023-01-25T04:43:07.383Z,15.60
2023-01-25T04:45:36.526Z,16.67
2023-01-25T04:48:10.692Z,14.73
2023-01-25T04:50:45.277Z,17.93
2023-01-25T04:53:14.567Z,15.10
2023-01-25T04:55:46.311Z,17.00
2023-01-25T04:58:15.194Z,18.27
2023-01-25T05:00:44.110Z,14.20
2023-01-25T05:03:12.874Z,20.90
2023-01-25T05:05:47.566Z,15.57
2023-01-25T05:08:19.090Z,18.63
2023-01-25T05:10:47.473Z,18.73
2023-01-25T05:13:38.543Z,17.73
2023-01-25T05:16:16.519Z,16.13
2023-01-25T05:18:48.903Z,19.80
2023-01-25T05:21:41.406Z,18.60
2023-01-25T05:24:10.527Z,17.40
2023-01-25T05:27:11.154Z,19.00
2023-01-25T05:29:54.251Z,17.13
2023-01-25T05:32:28.002Z,15.87
2023-01-25T05:34:58.311Z,15.97
2023-01-25T05:37:29.413Z,18.47
2023-01-25T05:40:05.388Z,16.07
2023-01-25T05:42:37.601Z,18.63
2023-01-25T05:45:10.733Z,19.67
2023-01-25T05:47:43.436Z,19.53
2023-01-25T05:50:12.150Z,21.63
2023-01-25T05:52:53.651Z,18.07
2023-01-25T05:55:21.599Z,18.13
2023-01-25T05:57:51.533Z,20.33
2023-01-25T06:00:20.334Z,16.43
2023-01-25T06:02:48.389Z,17.17
2023-01-25T06:05:20.145Z,18.23
2023-01-25T06:07:48.115Z,18.90
2023-01-25T06:10:19.468Z,18.40
2023-01-25T06:12:50.532Z,18.00
2023-01-25T06:15:18.475Z,16.70
2023-01-25T06:17:46.319Z,18.60
2023-01-25T06:20:29.365Z,20.10
2023-01-25T06:23:06.250Z,19.27
2023-01-25T06:25:35.529Z,16.13
2023-01-25T06:28:03.359Z,24.20
2023-01-25T06:30:31.282Z,21.00
2023-01-25T06:32:59.402Z,55.80
2023-01-25T06:35:27.345Z,69.00
2023-01-25T06:37:56.521Z,66.37
2023-01-25T06:40:24.516Z,34.73
2023-01-25T06:42:53.718Z,19.77
2023-01-25T06:45:21.920Z,19.90
2023-01-25T06:47:50.235Z,19.20
2023-01-25T06:50:18.256Z,22.67
2023-01-25T06:52:53.109Z,17.93
2023-01-25T06:55:21.208Z,19.77
2023-01-25T06:57:49.506Z,21.73
2023-01-25T07:00:19.785Z,21.30
2023-01-25T07:02:47.782Z,24.90
2023-01-25T07:05:15.894Z,19.87
2023-01-25T07:07:46.092Z,22.17
2023-01-25T07:10:14.027Z,20.87
2023-01-25T07:12:41.974Z,24.27
2023-01-25T07:15:10.878Z,27.07
2023-01-25T07:17:40.285Z,25.60
2023-01-25T07:20:09.500Z,32.80
2023-01-25T07:22:37.398Z,33.20
2023-01-25T07:25:07.022Z,33.07
2023-01-25T07:27:35.422Z,36.67
2023-01-25T07:30:04.004Z,40.80
2023-01-25T07:32:32.116Z,31.70
2023-01-25T07:35:01.335Z,28.67
2023-01-25T07:37:29.335Z,28.83
2023-01-25T07:39:58.209Z,24.00
2023-01-25T07:42:26.403Z,29.83
2023-01-25T07:45:12.315Z,27.07
2023-01-25T07:47:40.507Z,35.60
2023-01-25T07:50:11.917Z,31.33
2023-01-25T07:52:40.113Z,27.10
2023-01-25T07:55:08.794Z,26.47
2023-01-25T07:57:36.862Z,20.03
2023-01-25T08:00:07.167Z,20.40
2023-01-25T08:02:40.330Z,21.37
2023-01-25T08:05:11.452Z,20.03
2023-01-25T08:07:39.519Z,17.30
2023-01-25T08:10:08.128Z,20.13
2023-01-25T08:12:36.189Z,17.10
2023-01-25T08:15:04.711Z,27.10
2023-01-25T08:17:33.324Z,22.87
2023-01-25T08:20:01.684Z,26.87
2023-01-25T08:22:31.021Z,20.07
2023-01-25T08:25:01.144Z,21.03
2023-01-25T08:27:29.092Z,19.90
2023-01-25T08:29:57.037Z,20.57
2023-01-25T08:32:24.875Z,21.23
2023-01-25T08:34:52.791Z,24.00
2023-01-25T08:37:20.608Z,24.53
2023-01-25T08:39:50.106Z,23.73
2023-01-25T08:42:17.982Z,23.83
2023-01-25T08:44:45.888Z,24.77
2023-01-25T08:47:13.762Z,27.93
2023-01-25T08:49:41.943Z,25.83
2023-01-25T08:52:09.829Z,26.73
2023-01-25T08:54:37.681Z,25.37
2023-01-25T08:57:06.884Z,25.87
2023-01-25T08:59:34.721Z,24.90
2023-01-25T09:02:02.648Z,25.50
2023-01-25T09:04:30.596Z,26.50
2023-01-25T09:06:58.658Z,28.80
2023-01-25T09:09:26.642Z,26.17
2023-01-25T09:11:54.532Z,21.13
2023-01-25T09:14:24.023Z,23.57
2023-01-25T09:16:51.976Z,24.03
2023-01-25T09:19:19.874Z,22.57
2023-01-25T09:21:48.320Z,21.57
2023-01-25T09:24:16.201Z,24.93
2023-01-25T09:26:50.065Z,22.57
2023-01-25T09:29:26.356Z,20.97
2023-01-25T09:31:54.263Z,20.30
2023-01-25T09:34:42.646Z,19.27
2023-01-25T09:37:10.525Z,19.57
2023-01-25T09:39:38.394Z,20.60
2023-01-25T09:42:32.823Z,20.93
2023-01-25T09:45:22.542Z,20.87
2023-01-25T09:47:59.193Z,20.63
2023-01-25T09:50:36.545Z,22.97
2023-01-25T09:53:21.583Z,20.70
2023-01-25T09:55:55.539Z,21.57
2023-01-25T09:58:28.456Z,20.90
2023-01-25T10:01:13.883Z,18.47
2023-01-25T10:03:50.865Z,23.73
2023-01-25T10:06:23.350Z,22.73
2023-01-25T10:09:01.009Z,30.30
2023-01-25T10:11:31.369Z,22.93
2023-01-25T10:14:00.570Z,20.00
2023-01-25T10:16:34.855Z,21.37
2023-01-25T10:19:15.308Z,21.53
2023-01-25T10:21:46.515Z,20.27
2023-01-25T10:24:32.105Z,20.27
2023-01-25T10:27:04.441Z,23.30
2023-01-25T10:29:34.134Z,21.47
2023-01-25T10:32:15.635Z,20.23
2023-01-25T10:34:56.222Z,20.90
2023-01-25T10:37:29.481Z,22.03
2023-01-25T10:40:02.119Z,22.70
2023-01-25T10:42:40.698Z,27.97
2023-01-25T10:45:13.102Z,21.43
2023-01-25T10:47:45.039Z,23.90
2023-01-25T10:50:46.556Z,24.70
2023-01-25T10:53:26.622Z,30.13
2023-01-25T10:56:22.159Z,31.33
2023-01-25T10:58:54.380Z,26.60
2023-01-25T11:01:29.851Z,29.50
2023-01-25T11:04:00.416Z,35.40
2023-01-25T11:06:36.806Z,26.37
2023-01-25T11:09:32.753Z,22.97
2023-01-25T11:12:02.704Z,22.03
2023-01-25T11:14:32.171Z,40.63
2023-01-25T11:17:02.085Z,27.77
2023-01-25T11:19:34.371Z,25.50
2023-01-25T11:22:05.387Z,33.70
2023-01-25T11:24:36.550Z,26.80
2023-01-25T11:27:18.981Z,26.17
2023-01-25T11:30:09.692Z,27.97
2023-01-25T11:32:39.783Z,26.83
2023-01-25T11:35:14.193Z,33.03
2023-01-25T11:38:03.349Z,24.93
2023-01-25T11:40:39.068Z,35.30
2023-01-25T11:43:25.347Z,37.73
2023-01-25T11:46:07.674Z,38.47
2023-01-25T11:48:51.611Z,30.90
2023-01-25T11:51:27.307Z,26.23
2023-01-25T11:54:06.527Z,28.13
2023-01-25T11:56:50.261Z,37.03
2023-01-25T11:59:45.236Z,36.50
2023-01-25T12:02:33.864Z,32.53
2023-01-25T12:05:21.796Z,35.07
2023-01-25T12:08:02.229Z,35.93
2023-01-25T12:10:41.164Z,30.47
2023-01-25T12:13:18.720Z,32.20
2023-01-25T12:16:13.623Z,30.53
2023-01-25T12:19:04.623Z,32.13
2023-01-25T12:21:46.001Z,37.67
2023-01-25T12:24:27.781Z,37.60
2023-01-25T12:27:06.511Z,32.73
2023-01-25T12:29:40.654Z,33.53
2023-01-25T12:32:13.785Z,33.77
2023-01-25T12:34:48.609Z,32.53
2023-01-25T12:37:20.095Z,33.77
2023-01-25T12:39:52.538Z,34.33
2023-01-25T12:42:25.954Z,35.97
2023-01-25T12:45:00.534Z,36.00
2023-01-25T12:47:36.074Z,34.47
2023-01-25T12:50:15.508Z,34.90
2023-01-25T12:52:49.024Z,31.07
2023-01-25T12:55:18.706Z,30.60
2023-01-25T12:57:57.618Z,33.30
2023-01-25T13:00:36.170Z,31.87
2023-01-25T13:03:17.637Z,34.47
2023-01-25T13:05:53.038Z,38.17
2023-01-25T13:08:32.954Z,32.67
2023-01-25T13:11:10.684Z,30.23
2023-01-25T13:13:38.787Z,39.10
2023-01-25T13:16:37.636Z,32.20
2023-01-25T13:19:05.682Z,33.50
2023-01-25T13:21:42.407Z,35.17
2023-01-25T13:24:17.267Z,29.70
2023-01-25T13:26:50.835Z,30.87
2023-01-25T13:29:49.576Z,31.27
2023-01-25T13:32:56.467Z,34.73
2023-01-25T13:35:35.820Z,31.67
2023-01-25T13:38:07.459Z,32.23
2023-01-25T13:40:37.352Z,32.13
2023-01-25T13:43:17.441Z,29.13
2023-01-25T13:45:49.034Z,33.67
2023-01-25T13:48:21.456Z,27.40
2023-01-25T13:50:52.290Z,27.77
2023-01-25T13:53:23.373Z,28.13
2023-01-25T13:55:53.724Z,29.33
2023-01-25T13:58:23.326Z,27.83
2023-01-25T14:00:54.105Z,28.17
2023-01-25T14:03:27.628Z,29.87
2023-01-25T14:05:57.701Z,33.00
2023-01-25T14:08:27.411Z,29.30
2023-01-25T14:10:56.110Z,31.03
2023-01-25T14:13:23.937Z,36.43
2023-01-25T14:15:57.409Z,32.30
2023-01-25T14:18:31.984Z,28.97
2023-01-25T14:21:18.883Z,36.60
2023-01-25T14:23:48.532Z,35.60
2023-01-25T14:26:20.688Z,29.80
2023-01-25T14:28:59.526Z,35.83
2023-01-25T14:31:34.323Z,28.37
2023-01-25T14:34:06.141Z,31.90
2023-01-25T14:36:35.240Z,32.80
2023-01-25T14:39:04.942Z,30.17
2023-01-25T14:41:35.362Z,28.70
2023-01-25T14:44:05.390Z,28.07
2023-01-25T14:46:34.973Z,36.07
2023-01-25T14:49:29.089Z,29.00
2023-01-25T14:52:03.264Z,26.80
2023-01-25T14:54:33.898Z,30.87
2023-01-25T14:57:03.883Z,29.30
2023-01-25T14:59:36.800Z,29.00
2023-01-25T15:02:17.772Z,26.37
2023-01-25T15:04:55.609Z,32.40
2023-01-25T15:07:43.038Z,25.53
2023-01-25T15:10:20.154Z,29.70
2023-01-25T15:13:07.641Z,26.67
2023-01-25T15:15:51.881Z,23.10
2023-01-25T15:18:44.251Z,23.53
2023-01-25T15:21:15.469Z,28.83
2023-01-25T15:23:45.473Z,28.10
2023-01-25T15:26:18.967Z,28.43
2023-01-25T15:28:47.693Z,33.30
2023-01-25T15:31:20.039Z,32.10
2023-01-25T15:33:48.390Z,26.43
2023-01-25T15:36:18.603Z,34.03
2023-01-25T15:38:46.621Z,32.20
2023-01-25T15:41:15.101Z,27.67
2023-01-25T15:43:43.128Z,29.43
2023-01-25T15:46:17.685Z,28.60
2023-01-25T15:48:47.275Z,31.83
2023-01-25T15:51:15.156Z,27.60
2023-01-25T15:53:44.512Z,32.17
2023-01-25T15:56:17.076Z,31.43
2023-01-25T15:58:48.206Z,31.77
2023-01-25T16:01:16.425Z,32.10
2023-01-25T16:03:44.303Z,32.20
2023-01-25T16:06:27.056Z,27.33
2023-01-25T16:08:58.639Z,29.57
2023-01-25T16:11:26.727Z,31.83
2023-01-25T16:13:54.746Z,28.47
2023-01-25T16:16:24.917Z,29.93
2023-01-25T16:18:52.933Z,29.87
2023-01-25T16:21:20.797Z,33.57
2023-01-25T16:23:48.725Z,33.03
2023-01-25T16:26:20.937Z,28.27
2023-01-25T16:28:48.849Z,32.80
2023-01-25T16:31:31.375Z,27.37
2023-01-25T16:34:00.928Z,30.87
2023-01-25T16:36:29.594Z,30.87
2023-01-25T16:38:57.492Z,30.67
2023-01-25T16:41:26.729Z,31.67
2023-01-25T16:43:54.572Z,31.57
2023-01-25T16:46:24.590Z,28.03
2023-01-25T16:48:53.565Z,33.90
2023-01-25T16:51:24.647Z,34.70
2023-01-25T16:53:56.217Z,31.77
2023-01-25T16:56:27.035Z,31.30
2023-01-25T16:58:56.413Z,29.17
2023-01-25T17:01:26.208Z,28.90
2023-01-25T17:03:55.784Z,31.80
2023-01-25T17:06:26.997Z,30.47
2023-01-25T17:08:58.864Z,35.30
2023-01-25T17:11:29.308Z,32.90
2023-01-25T17:13:59.227Z,31.00
2023-01-25T17:16:29.087Z,32.90
2023-01-25T17:19:00.320Z,33.40
2023-01-25T17:21:28.679Z,32.67
2023-01-25T17:23:58.346Z,32.27
2023-01-25T17:26:28.382Z,31.73
2023-01-25T17:28:56.804Z,30.07
2023-01-25T17:31:27.336Z,32.97
2023-01-25T17:33:56.428Z,32.57
2023-01-25T17:36:24.335Z,29.93
2023-01-25T17:38:54.002Z,29.30
2023-01-25T17:41:22.016Z,33.90
2023-01-25T17:43:53.517Z,35.77
2023-01-25T17:46:25.410Z,32.30
2023-01-25T17:48:54.272Z,29.63
2023-01-25T17:51:24.822Z,35.90
2023-01-25T17:53:53.105Z,34.13
2023-01-25T17:56:21.422Z,31.10
2023-01-25T17:58:49.398Z,33.73
2023-01-25T18:01:20.777Z,31.67
2023-01-25T18:03:50.270Z,37.77
2023-01-25T18:06:21.048Z,36.70
2023-01-25T18:08:50.675Z,40.90
2023-01-25T18:11:20.731Z,32.17
2023-01-25T18:13:50.713Z,35.33
2023-01-25T18:16:22.214Z,31.60
2023-01-25T18:18:51.570Z,32.40
2023-01-25T18:21:24.104Z,34.93
2023-01-25T18:23:54.046Z,36.43
2023-01-25T18:26:23.762Z,37.23
2023-01-25T18:28:54.202Z,32.83
2023-01-25T18:31:23.421Z,36.43
2023-01-25T18:33:51.408Z,31.33
2023-01-25T18:36:20.158Z,34.50
2023-01-25T18:38:48.151Z,34.07
2023-01-25T18:41:16.257Z,35.60
2023-01-25T18:43:44.184Z,50.33
2023-01-25T18:46:12.823Z,54.73
2023-01-25T18:48:43.641Z,39.07
2023-01-25T18:51:13.197Z,34.00
2023-01-25T18:53:43.511Z,36.50
2023-01-25T18:56:14.106Z,36.53
2023-01-25T18:58:42.019Z,34.23
2023-01-25T19:01:12.683Z,33.90
2023-01-25T19:03:42.275Z,32.33
2023-01-25T19:06:10.522Z,35.30
2023-01-25T19:08:41.529Z,36.00
2023-01-25T19:11:11.383Z,36.30
2023-01-25T19:13:40.479Z,35.63
2023-01-25T19:16:11.689Z,36.00
2023-01-25T19:18:46.328Z,35.50
2023-01-25T19:21:16.207Z,36.07
2023-01-25T19:23:44.535Z,30.90
2023-01-25T19:26:15.906Z,36.23
2023-01-25T19:28:44.840Z,38.30
2023-01-25T19:31:14.431Z,37.80
2023-01-25T19:33:44.513Z,32.63
2023-01-25T19:36:16.759Z,34.20
2023-01-25T19:38:46.372Z,35.43
2023-01-25T19:41:15.665Z,36.60
2023-01-25T19:43:43.914Z,36.20
2023-01-25T19:46:13.999Z,37.60
2023-01-25T19:48:44.860Z,33.53
2023-01-25T19:51:15.157Z,38.17
2023-01-25T19:53:46.560Z,33.63
2023-01-25T19:56:16.384Z,38.83
2023-01-25T19:58:45.376Z,37.43
2023-01-25T20:01:16.176Z,40.37
2023-01-25T20:03:45.828Z,41.73
2023-01-25T20:06:15.031Z,38.10
2023-01-25T20:08:44.365Z,35.30
2023-01-25T20:11:13.788Z,40.87
2023-01-25T20:13:42.129Z,38.17
2023-01-25T20:16:11.589Z,34.40
2023-01-25T20:18:39.663Z,33.70
2023-01-25T20:21:12.238Z,35.43
2023-01-25T20:23:41.732Z,36.97
2023-01-25T20:26:13.584Z,32.47
2023-01-25T20:28:43.089Z,39.23
2023-01-25T20:31:20.412Z,39.60
2023-01-25T20:33:48.861Z,36.47
2023-01-25T20:36:18.372Z,31.27
2023-01-25T20:38:47.291Z,34.37
2023-01-25T20:41:17.331Z,38.50
2023-01-25T20:43:49.152Z,37.70
2023-01-25T20:46:17.656Z,38.17
2023-01-25T20:48:45.894Z,35.27
2023-01-25T20:51:17.092Z,33.13
2023-01-25T20:53:46.916Z,41.97
2023-01-25T20:56:15.476Z,36.03
2023-01-25T20:58:45.904Z,36.37
2023-01-25T21:01:15.395Z,35.03
2023-01-25T21:03:43.414Z,34.10
2023-01-25T21:06:12.171Z,40.60
2023-01-25T21:08:40.552Z,32.90
2023-01-25T21:11:11.480Z,40.23
2023-01-25T21:13:39.398Z,33.87
2023-01-25T21:16:10.103Z,35.57
2023-01-25T21:18:39.893Z,40.20
2023-01-25T21:21:09.998Z,34.37
2023-01-25T21:23:40.238Z,36.60
2023-01-25T21:26:14.398Z,40.87
2023-01-25T21:28:42.360Z,33.60
2023-01-25T21:31:11.818Z,37.13
2023-01-25T21:33:40.671Z,32.90
2023-01-25T21:36:11.552Z,35.97
2023-01-25T21:38:40.509Z,36.33
2023-01-25T21:41:12.680Z,37.03
2023-01-25T21:43:58.437Z,31.30
2023-01-25T21:46:27.764Z,34.60
2023-01-25T21:49:13.785Z,38.60
2023-01-25T21:51:49.420Z,37.87
2023-01-25T21:54:18.387Z,36.37
2023-01-25T21:56:48.915Z,36.67
2023-01-25T21:59:17.042Z,33.60
2023-01-25T22:01:45.798Z,58.70
2023-01-25T22:04:15.083Z,72.07
2023-01-25T22:06:43.717Z,66.47
2023-01-25T22:09:13.888Z,44.97
2023-01-25T22:11:42.058Z,42.73
2023-01-25T22:14:11.266Z,33.43
2023-01-25T22:16:39.161Z,37.90
2023-01-25T22:19:07.441Z,34.10
2023-01-25T22:21:35.576Z,31.00
2023-01-25T22:24:05.908Z,32.80
2023-01-25T22:26:43.844Z,29.53
2023-01-25T22:29:13.857Z,35.87
2023-01-25T22:31:41.905Z,32.50
2023-01-25T22:34:11.012Z,35.10
2023-01-25T22:36:39.184Z,32.10
2023-01-25T22:39:07.201Z,27.03
2023-01-25T22:41:38.496Z,27.97
2023-01-25T22:44:06.551Z,33.23
2023-01-25T22:46:35.777Z,27.93
2023-01-25T22:49:05.789Z,32.10
2023-01-25T22:51:33.728Z,35.70
2023-01-25T22:54:01.782Z,30.50
2023-01-25T22:56:31.725Z,34.93
2023-01-25T22:59:00.795Z,32.97
2023-01-25T23:01:30.024Z,29.13
2023-01-25T23:04:00.017Z,33.47
2023-01-25T23:06:29.470Z,32.43
2023-01-25T23:08:59.732Z,33.13
2023-01-25T23:11:35.672Z,33.70
2023-01-25T23:14:22.235Z,34.20
2023-01-25T23:16:50.112Z,40.90
2023-01-25T23:19:18.453Z,36.73
2023-01-25T23:21:46.380Z,35.27
2023-01-25T23:24:14.481Z,36.87
2023-01-25T23:26:46.119Z,35.50
2023-01-25T23:29:14.594Z,30.73
2023-01-25T23:31:43.055Z,33.30
2023-01-25T23:34:12.520Z,35.20
2023-01-25T23:36:42.408Z,31.67
2023-01-25T23:39:12.479Z,33.03
2023-01-25T23:41:40.739Z,32.77
2023-01-25T23:44:09.117Z,31.60
2023-01-25T23:46:37.491Z,31.97
2023-01-25T23:49:05.487Z,28.60
2023-01-25T23:51:33.299Z,27.20
2023-01-25T23:54:02.572Z,30.43
2023-01-25T23:56:30.423Z,31.20
2023-01-25T23:58:58.506Z,30.10
